sensor_id;sensor_type;location;lat;lon;timestamp;P1;durP1;ratioP1;P2;durP2;ratioP2
36257;SDS011;22294;52.044;4.582;2023-02-18T00:00:09;58.80;;;22.45;;
36257;SDS011;22294;52.044;4.582;2023-02-18T00:02:37;53.75;;;22.55;;
36257;SDS011;22294;52.044;4.582;2023-02-18T00:05:03;54.70;;;22.00;;
36257;SDS011;22294;52.044;4.582;2023-02-18T00:07:32;45.30;;;20.38;;
36257;SDS011;22294;52.044;4.582;2023-02-18T00:10:01;47.50;;;21.67;;
36257;SDS011;22294;52.044;4.582;2023-02-18T00:12:29;46.92;;;20.85;;
36257;SDS011;22294;52.044;4.582;2023-02-18T00:14:55;54.38;;;21.52;;
36257;SDS011;22294;52.044;4.582;2023-02-18T00:17:20;45.45;;;20.10;;
36257;SDS011;22294;52.044;4.582;2023-02-18T00:19:45;41.40;;;19.85;;
36257;SDS011;22294;52.044;4.582;2023-02-18T00:22:10;39.47;;;19.70;;
36257;SDS011;22294;52.044;4.582;2023-02-18T00:24:37;43.75;;;20.75;;
36257;SDS011;22294;52.044;4.582;2023-02-18T00:27:02;40.33;;;20.33;;
36257;SDS011;22294;52.044;4.582;2023-02-18T00:29:28;43.60;;;19.73;;
36257;SDS011;22294;52.044;4.582;2023-02-18T00:31:53;44.45;;;21.38;;
36257;SDS011;22294;52.044;4.582;2023-02-18T00:34:18;44.58;;;21.55;;
36257;SDS011;22294;52.044;4.582;2023-02-18T00:36:43;50.95;;;22.73;;
36257;SDS011;22294;52.044;4.582;2023-02-18T00:39:09;47.72;;;23.00;;
36257;SDS011;22294;52.044;4.582;2023-02-18T00:41:36;49.00;;;24.90;;
36257;SDS011;22294;52.044;4.582;2023-02-18T00:44:02;46.75;;;22.58;;
36257;SDS011;22294;52.044;4.582;2023-02-18T00:46:27;51.17;;;25.48;;
36257;SDS011;22294;52.044;4.582;2023-02-18T00:48:54;44.15;;;22.08;;
36257;SDS011;22294;52.044;4.582;2023-02-18T00:51:20;47.22;;;22.00;;
36257;SDS011;22294;52.044;4.582;2023-02-18T00:53:46;43.05;;;20.13;;
36257;SDS011;22294;52.044;4.582;2023-02-18T00:56:12;38.75;;;19.70;;
36257;SDS011;22294;52.044;4.582;2023-02-18T00:58:37;40.58;;;20.02;;
36257;SDS011;22294;52.044;4.582;2023-02-18T01:01:04;41.45;;;19.45;;
36257;SDS011;22294;52.044;4.582;2023-02-18T01:03:30;38.08;;;18.38;;
36257;SDS011;22294;52.044;4.582;2023-02-18T01:05:56;37.13;;;18.27;;
36257;SDS011;22294;52.044;4.582;2023-02-18T01:08:21;38.20;;;18.17;;
36257;SDS011;22294;52.044;4.582;2023-02-18T01:10:47;36.10;;;17.88;;
36257;SDS011;22294;52.044;4.582;2023-02-18T01:13:14;36.13;;;18.50;;
36257;SDS011;22294;52.044;4.582;2023-02-18T01:15:41;37.80;;;18.42;;
36257;SDS011;22294;52.044;4.582;2023-02-18T01:18:07;37.90;;;17.50;;
36257;SDS011;22294;52.044;4.582;2023-02-18T01:20:34;36.63;;;18.13;;
36257;SDS011;22294;52.044;4.582;2023-02-18T01:23:00;35.58;;;17.58;;
36257;SDS011;22294;52.044;4.582;2023-02-18T01:25:25;37.65;;;17.48;;
36257;SDS011;22294;52.044;4.582;2023-02-18T01:27:50;42.08;;;17.73;;
36257;SDS011;22294;52.044;4.582;2023-02-18T01:30:16;34.83;;;16.33;;
36257;SDS011;22294;52.044;4.582;2023-02-18T01:32:42;35.90;;;16.48;;
36257;SDS011;22294;52.044;4.582;2023-02-18T01:35:09;34.83;;;16.13;;
36257;SDS011;22294;52.044;4.582;2023-02-18T01:37:36;33.42;;;14.82;;
36257;SDS011;22294;52.044;4.582;2023-02-18T01:40:02;35.67;;;17.85;;
36257;SDS011;22294;52.044;4.582;2023-02-18T01:42:28;36.30;;;16.73;;
36257;SDS011;22294;52.044;4.582;2023-02-18T01:44:54;38.35;;;17.95;;
36257;SDS011;22294;52.044;4.582;2023-02-18T01:50:45;39.25;;;17.40;;
36257;SDS011;22294;52.044;4.582;2023-02-18T01:53:14;41.40;;;18.23;;
36257;SDS011;22294;52.044;4.582;2023-02-18T01:55:42;41.13;;;18.30;;
36257;SDS011;22294;52.044;4.582;2023-02-18T01:58:08;41.60;;;17.83;;
36257;SDS011;22294;52.044;4.582;2023-02-18T02:00:35;38.10;;;17.48;;
36257;SDS011;22294;52.044;4.582;2023-02-18T02:03:01;39.58;;;17.58;;
36257;SDS011;22294;52.044;4.582;2023-02-18T02:05:29;44.83;;;18.23;;
36257;SDS011;22294;52.044;4.582;2023-02-18T02:07:55;40.85;;;18.13;;
36257;SDS011;22294;52.044;4.582;2023-02-18T02:10:21;42.38;;;17.85;;
36257;SDS011;22294;52.044;4.582;2023-02-18T02:18:38;42.00;;;19.23;;
36257;SDS011;22294;52.044;4.582;2023-02-18T02:24:26;42.13;;;18.77;;
36257;SDS011;22294;52.044;4.582;2023-02-18T02:27:24;46.35;;;18.90;;
36257;SDS011;22294;52.044;4.582;2023-02-18T02:35:25;42.60;;;19.13;;
36257;SDS011;22294;52.044;4.582;2023-02-18T02:40:33;38.65;;;18.33;;
36257;SDS011;22294;52.044;4.582;2023-02-18T02:43:19;35.75;;;17.35;;
36257;SDS011;22294;52.044;4.582;2023-02-18T02:45:57;37.22;;;19.05;;
36257;SDS011;22294;52.044;4.582;2023-02-18T02:48:38;41.38;;;19.58;;
36257;SDS011;22294;52.044;4.582;2023-02-18T02:51:29;41.53;;;18.80;;
36257;SDS011;22294;52.044;4.582;2023-02-18T02:56:37;32.55;;;16.63;;
36257;SDS011;22294;52.044;4.582;2023-02-18T02:59:03;28.83;;;15.88;;
36257;SDS011;22294;52.044;4.582;2023-02-18T03:09:32;32.92;;;17.42;;
36257;SDS011;22294;52.044;4.582;2023-02-18T03:12:24;26.77;;;14.77;;
36257;SDS011;22294;52.044;4.582;2023-02-18T03:17:46;24.88;;;13.75;;
36257;SDS011;22294;52.044;4.582;2023-02-18T03:20:33;21.73;;;12.38;;
36257;SDS011;22294;52.044;4.582;2023-02-18T03:23:02;20.52;;;12.10;;
36257;SDS011;22294;52.044;4.582;2023-02-18T03:28:01;21.75;;;12.40;;
36257;SDS011;22294;52.044;4.582;2023-02-18T03:30:36;18.73;;;10.93;;
36257;SDS011;22294;52.044;4.582;2023-02-18T03:33:06;17.85;;;10.38;;
36257;SDS011;22294;52.044;4.582;2023-02-18T03:35:37;16.83;;;10.10;;
36257;SDS011;22294;52.044;4.582;2023-02-18T03:38:05;13.88;;;8.60;;
36257;SDS011;22294;52.044;4.582;2023-02-18T03:40:36;16.23;;;8.43;;
36257;SDS011;22294;52.044;4.582;2023-02-18T03:43:03;13.57;;;7.93;;
36257;SDS011;22294;52.044;4.582;2023-02-18T03:45:29;15.68;;;8.52;;
36257;SDS011;22294;52.044;4.582;2023-02-18T03:47:54;16.35;;;8.38;;
36257;SDS011;22294;52.044;4.582;2023-02-18T03:50:20;14.70;;;8.30;;
36257;SDS011;22294;52.044;4.582;2023-02-18T03:52:46;12.80;;;7.20;;
36257;SDS011;22294;52.044;4.582;2023-02-18T03:55:12;13.40;;;7.65;;
36257;SDS011;22294;52.044;4.582;2023-02-18T03:57:38;12.32;;;7.38;;
36257;SDS011;22294;52.044;4.582;2023-02-18T04:00:04;14.80;;;7.32;;
36257;SDS011;22294;52.044;4.582;2023-02-18T04:02:31;13.65;;;7.45;;
36257;SDS011;22294;52.044;4.582;2023-02-18T04:04:57;13.45;;;7.00;;
36257;SDS011;22294;52.044;4.582;2023-02-18T04:07:22;13.25;;;7.45;;
36257;SDS011;22294;52.044;4.582;2023-02-18T04:09:47;13.02;;;7.95;;
36257;SDS011;22294;52.044;4.582;2023-02-18T04:12:13;13.45;;;7.32;;
36257;SDS011;22294;52.044;4.582;2023-02-18T04:14:38;13.90;;;8.55;;
36257;SDS011;22294;52.044;4.582;2023-02-18T04:17:03;14.18;;;8.45;;
36257;SDS011;22294;52.044;4.582;2023-02-18T04:19:30;17.40;;;9.50;;
36257;SDS011;22294;52.044;4.582;2023-02-18T04:21:55;16.95;;;9.95;;
36257;SDS011;22294;52.044;4.582;2023-02-18T04:24:23;17.40;;;10.15;;
36257;SDS011;22294;52.044;4.582;2023-02-18T04:26:48;21.75;;;11.85;;
36257;SDS011;22294;52.044;4.582;2023-02-18T04:29:13;21.45;;;12.05;;
36257;SDS011;22294;52.044;4.582;2023-02-18T04:31:39;31.13;;;13.07;;
36257;SDS011;22294;52.044;4.582;2023-02-18T04:34:04;29.60;;;13.85;;
36257;SDS011;22294;52.044;4.582;2023-02-18T04:36:29;31.65;;;14.02;;
36257;SDS011;22294;52.044;4.582;2023-02-18T04:38:55;31.30;;;14.13;;
36257;SDS011;22294;52.044;4.582;2023-02-18T04:41:22;26.83;;;13.35;;
36257;SDS011;22294;52.044;4.582;2023-02-18T04:43:47;32.80;;;14.82;;
36257;SDS011;22294;52.044;4.582;2023-02-18T04:46:13;30.10;;;14.32;;
36257;SDS011;22294;52.044;4.582;2023-02-18T04:48:38;28.10;;;14.02;;
36257;SDS011;22294;52.044;4.582;2023-02-18T04:51:03;23.23;;;12.98;;
36257;SDS011;22294;52.044;4.582;2023-02-18T04:53:29;30.70;;;13.80;;
36257;SDS011;22294;52.044;4.582;2023-02-18T04:55:55;26.88;;;14.10;;
36257;SDS011;22294;52.044;4.582;2023-02-18T04:58:21;23.92;;;13.85;;
36257;SDS011;22294;52.044;4.582;2023-02-18T05:00:46;21.70;;;13.20;;
36257;SDS011;22294;52.044;4.582;2023-02-18T05:03:12;29.40;;;13.70;;
36257;SDS011;22294;52.044;4.582;2023-02-18T05:05:37;23.27;;;12.27;;
36257;SDS011;22294;52.044;4.582;2023-02-18T05:08:03;27.27;;;13.75;;
36257;SDS011;22294;52.044;4.582;2023-02-18T05:10:28;23.25;;;13.45;;
36257;SDS011;22294;52.044;4.582;2023-02-18T05:12:54;24.80;;;13.20;;
36257;SDS011;22294;52.044;4.582;2023-02-18T05:15:20;27.92;;;11.55;;
36257;SDS011;22294;52.044;4.582;2023-02-18T05:17:46;28.58;;;12.43;;
36257;SDS011;22294;52.044;4.582;2023-02-18T05:20:11;26.83;;;12.73;;
36257;SDS011;22294;52.044;4.582;2023-02-18T05:22:37;23.52;;;12.07;;
36257;SDS011;22294;52.044;4.582;2023-02-18T05:25:03;24.23;;;11.10;;
36257;SDS011;22294;52.044;4.582;2023-02-18T05:27:28;18.95;;;11.35;;
36257;SDS011;22294;52.044;4.582;2023-02-18T05:29:54;20.67;;;11.05;;
36257;SDS011;22294;52.044;4.582;2023-02-18T05:32:20;20.42;;;11.38;;
36257;SDS011;22294;52.044;4.582;2023-02-18T05:34:47;23.67;;;11.15;;
36257;SDS011;22294;52.044;4.582;2023-02-18T05:37:12;22.73;;;11.48;;
36257;SDS011;22294;52.044;4.582;2023-02-18T05:39:38;21.15;;;10.90;;
36257;SDS011;22294;52.044;4.582;2023-02-18T05:42:04;18.85;;;10.55;;
36257;SDS011;22294;52.044;4.582;2023-02-18T05:44:29;21.02;;;10.40;;
36257;SDS011;22294;52.044;4.582;2023-02-18T05:46:59;19.30;;;10.73;;
36257;SDS011;22294;52.044;4.582;2023-02-18T05:49:27;18.70;;;11.45;;
36257;SDS011;22294;52.044;4.582;2023-02-18T05:51:54;23.10;;;12.27;;
36257;SDS011;22294;52.044;4.582;2023-02-18T05:54:19;20.20;;;11.45;;
36257;SDS011;22294;52.044;4.582;2023-02-18T05:56:45;26.40;;;11.90;;
36257;SDS011;22294;52.044;4.582;2023-02-18T05:59:10;25.02;;;12.48;;
36257;SDS011;22294;52.044;4.582;2023-02-18T06:01:36;24.65;;;11.93;;
36257;SDS011;22294;52.044;4.582;2023-02-18T06:04:03;26.23;;;12.20;;
36257;SDS011;22294;52.044;4.582;2023-02-18T06:06:28;26.20;;;12.75;;
36257;SDS011;22294;52.044;4.582;2023-02-18T06:08:53;29.55;;;13.52;;
36257;SDS011;22294;52.044;4.582;2023-02-18T06:11:20;32.03;;;12.48;;
36257;SDS011;22294;52.044;4.582;2023-02-18T06:13:47;27.98;;;12.75;;
36257;SDS011;22294;52.044;4.582;2023-02-18T06:16:13;33.00;;;12.88;;
36257;SDS011;22294;52.044;4.582;2023-02-18T06:18:38;33.58;;;12.10;;
36257;SDS011;22294;52.044;4.582;2023-02-18T06:21:04;35.70;;;13.52;;
36257;SDS011;22294;52.044;4.582;2023-02-18T06:23:29;25.55;;;11.77;;
36257;SDS011;22294;52.044;4.582;2023-02-18T06:25:55;27.02;;;12.07;;
36257;SDS011;22294;52.044;4.582;2023-02-18T06:28:20;37.08;;;11.65;;
36257;SDS011;22294;52.044;4.582;2023-02-18T06:30:46;30.60;;;11.10;;
36257;SDS011;22294;52.044;4.582;2023-02-18T06:33:12;28.00;;;10.30;;
36257;SDS011;22294;52.044;4.582;2023-02-18T06:35:39;38.00;;;10.55;;
36257;SDS011;22294;52.044;4.582;2023-02-18T06:38:04;27.30;;;9.23;;
36257;SDS011;22294;52.044;4.582;2023-02-18T06:40:29;29.98;;;9.70;;
36257;SDS011;22294;52.044;4.582;2023-02-18T06:42:56;28.27;;;9.25;;
36257;SDS011;22294;52.044;4.582;2023-02-18T06:45:21;29.10;;;8.30;;
36257;SDS011;22294;52.044;4.582;2023-02-18T06:47:47;23.25;;;9.13;;
36257;SDS011;22294;52.044;4.582;2023-02-18T06:50:12;35.70;;;8.73;;
36257;SDS011;22294;52.044;4.582;2023-02-18T06:52:37;24.70;;;7.68;;
36257;SDS011;22294;52.044;4.582;2023-02-18T06:55:07;25.73;;;6.78;;
36257;SDS011;22294;52.044;4.582;2023-02-18T06:57:36;27.48;;;6.47;;
36257;SDS011;22294;52.044;4.582;2023-02-18T07:00:01;27.05;;;6.00;;
36257;SDS011;22294;52.044;4.582;2023-02-18T07:02:28;22.15;;;6.15;;
36257;SDS011;22294;52.044;4.582;2023-02-18T07:04:55;32.13;;;6.55;;
36257;SDS011;22294;52.044;4.582;2023-02-18T07:07:21;28.08;;;5.97;;
36257;SDS011;22294;52.044;4.582;2023-02-18T07:09:46;28.02;;;5.03;;
36257;SDS011;22294;52.044;4.582;2023-02-18T07:12:11;29.85;;;4.55;;
36257;SDS011;22294;52.044;4.582;2023-02-18T07:14:36;34.63;;;4.47;;
36257;SDS011;22294;52.044;4.582;2023-02-18T07:17:02;23.92;;;4.13;;
36257;SDS011;22294;52.044;4.582;2023-02-18T07:19:27;24.10;;;4.18;;
36257;SDS011;22294;52.044;4.582;2023-02-18T07:21:52;30.55;;;5.25;;
36257;SDS011;22294;52.044;4.582;2023-02-18T07:24:21;26.42;;;4.28;;
36257;SDS011;22294;52.044;4.582;2023-02-18T07:26:47;30.77;;;4.18;;
36257;SDS011;22294;52.044;4.582;2023-02-18T07:29:12;31.13;;;4.90;;
36257;SDS011;22294;52.044;4.582;2023-02-18T07:31:38;28.10;;;3.80;;
36257;SDS011;22294;52.044;4.582;2023-02-18T07:34:04;28.92;;;4.20;;
36257;SDS011;22294;52.044;4.582;2023-02-18T07:36:29;28.48;;;4.15;;
36257;SDS011;22294;52.044;4.582;2023-02-18T07:38:54;24.33;;;4.43;;
36257;SDS011;22294;52.044;4.582;2023-02-18T07:41:20;27.80;;;4.35;;
36257;SDS011;22294;52.044;4.582;2023-02-18T07:43:47;27.50;;;5.35;;
36257;SDS011;22294;52.044;4.582;2023-02-18T07:46:13;22.88;;;4.05;;
36257;SDS011;22294;52.044;4.582;2023-02-18T07:48:38;24.73;;;4.60;;
36257;SDS011;22294;52.044;4.582;2023-02-18T07:51:04;25.98;;;4.55;;
36257;SDS011;22294;52.044;4.582;2023-02-18T07:53:31;29.40;;;4.05;;
36257;SDS011;22294;52.044;4.582;2023-02-18T07:55:57;24.02;;;4.65;;
36257;SDS011;22294;52.044;4.582;2023-02-18T07:58:25;27.92;;;3.67;;
36257;SDS011;22294;52.044;4.582;2023-02-18T08:00:53;31.88;;;5.78;;
36257;SDS011;22294;52.044;4.582;2023-02-18T08:03:19;22.88;;;4.15;;
36257;SDS011;22294;52.044;4.582;2023-02-18T08:05:49;22.60;;;3.42;;
36257;SDS011;22294;52.044;4.582;2023-02-18T08:08:16;26.58;;;4.15;;
36257;SDS011;22294;52.044;4.582;2023-02-18T08:10:44;22.73;;;4.50;;
36257;SDS011;22294;52.044;4.582;2023-02-18T08:13:10;22.88;;;4.15;;
36257;SDS011;22294;52.044;4.582;2023-02-18T08:15:36;21.83;;;4.03;;
36257;SDS011;22294;52.044;4.582;2023-02-18T08:18:01;25.50;;;3.60;;
36257;SDS011;22294;52.044;4.582;2023-02-18T08:20:27;23.30;;;4.18;;
36257;SDS011;22294;52.044;4.582;2023-02-18T08:22:53;25.02;;;4.18;;
36257;SDS011;22294;52.044;4.582;2023-02-18T08:25:19;32.45;;;4.68;;
36257;SDS011;22294;52.044;4.582;2023-02-18T08:27:44;25.20;;;4.72;;
36257;SDS011;22294;52.044;4.582;2023-02-18T08:30:10;21.25;;;4.55;;
36257;SDS011;22294;52.044;4.582;2023-02-18T08:32:36;30.48;;;4.50;;
36257;SDS011;22294;52.044;4.582;2023-02-18T08:35:01;21.08;;;4.25;;
36257;SDS011;22294;52.044;4.582;2023-02-18T08:37:29;31.17;;;4.15;;
36257;SDS011;22294;52.044;4.582;2023-02-18T08:39:54;25.42;;;4.45;;
36257;SDS011;22294;52.044;4.582;2023-02-18T08:42:20;22.85;;;3.53;;
36257;SDS011;22294;52.044;4.582;2023-02-18T08:44:45;24.50;;;3.58;;
36257;SDS011;22294;52.044;4.582;2023-02-18T08:47:10;21.85;;;4.20;;
36257;SDS011;22294;52.044;4.582;2023-02-18T08:49:36;28.70;;;3.55;;
36257;SDS011;22294;52.044;4.582;2023-02-18T08:52:02;19.42;;;4.07;;
36257;SDS011;22294;52.044;4.582;2023-02-18T08:54:28;21.05;;;3.90;;
36257;SDS011;22294;52.044;4.582;2023-02-18T08:56:54;20.95;;;3.67;;
36257;SDS011;22294;52.044;4.582;2023-02-18T08:59:21;24.38;;;3.67;;
36257;SDS011;22294;52.044;4.582;2023-02-18T09:01:49;21.35;;;3.70;;
36257;SDS011;22294;52.044;4.582;2023-02-18T09:04:15;22.10;;;3.78;;
36257;SDS011;22294;52.044;4.582;2023-02-18T09:06:41;25.77;;;3.85;;
36257;SDS011;22294;52.044;4.582;2023-02-18T09:09:06;24.98;;;4.15;;
36257;SDS011;22294;52.044;4.582;2023-02-18T09:11:32;20.60;;;3.35;;
36257;SDS011;22294;52.044;4.582;2023-02-18T09:13:58;34.88;;;4.97;;
36257;SDS011;22294;52.044;4.582;2023-02-18T09:16:23;22.77;;;4.45;;
36257;SDS011;22294;52.044;4.582;2023-02-18T09:18:49;27.58;;;3.63;;
36257;SDS011;22294;52.044;4.582;2023-02-18T09:21:14;29.50;;;4.28;;
36257;SDS011;22294;52.044;4.582;2023-02-18T09:23:43;24.23;;;4.18;;
36257;SDS011;22294;52.044;4.582;2023-02-18T09:26:09;26.95;;;3.53;;
36257;SDS011;22294;52.044;4.582;2023-02-18T09:28:38;30.75;;;4.60;;
36257;SDS011;22294;52.044;4.582;2023-02-18T09:31:08;24.42;;;4.00;;
36257;SDS011;22294;52.044;4.582;2023-02-18T09:33:37;23.60;;;4.22;;
36257;SDS011;22294;52.044;4.582;2023-02-18T09:36:04;29.45;;;3.90;;
36257;SDS011;22294;52.044;4.582;2023-02-18T09:38:30;29.23;;;4.15;;
36257;SDS011;22294;52.044;4.582;2023-02-18T09:40:55;23.02;;;4.50;;
36257;SDS011;22294;52.044;4.582;2023-02-18T09:43:27;30.40;;;5.05;;
36257;SDS011;22294;52.044;4.582;2023-02-18T09:45:57;28.23;;;4.75;;
36257;SDS011;22294;52.044;4.582;2023-02-18T09:48:30;24.77;;;4.75;;
36257;SDS011;22294;52.044;4.582;2023-02-18T09:50:58;35.13;;;4.72;;
36257;SDS011;22294;52.044;4.582;2023-02-18T09:53:24;37.00;;;4.95;;
36257;SDS011;22294;52.044;4.582;2023-02-18T09:55:53;26.58;;;4.38;;
36257;SDS011;22294;52.044;4.582;2023-02-18T09:58:24;20.48;;;4.28;;
36257;SDS011;22294;52.044;4.582;2023-02-18T10:03:30;25.08;;;4.07;;
36257;SDS011;22294;52.044;4.582;2023-02-18T10:06:03;30.38;;;4.05;;
36257;SDS011;22294;52.044;4.582;2023-02-18T10:08:35;23.17;;;4.07;;
36257;SDS011;22294;52.044;4.582;2023-02-18T10:11:03;26.90;;;3.70;;
36257;SDS011;22294;52.044;4.582;2023-02-18T10:13:37;25.33;;;4.30;;
36257;SDS011;22294;52.044;4.582;2023-02-18T10:16:04;28.92;;;4.65;;
36257;SDS011;22294;52.044;4.582;2023-02-18T10:18:31;27.92;;;3.72;;
36257;SDS011;22294;52.044;4.582;2023-02-18T10:21:02;24.05;;;3.90;;
36257;SDS011;22294;52.044;4.582;2023-02-18T10:23:32;24.80;;;4.13;;
36257;SDS011;22294;52.044;4.582;2023-02-18T10:26:00;25.40;;;4.07;;
36257;SDS011;22294;52.044;4.582;2023-02-18T10:28:29;24.23;;;4.45;;
36257;SDS011;22294;52.044;4.582;2023-02-18T10:31:00;25.90;;;3.47;;
36257;SDS011;22294;52.044;4.582;2023-02-18T10:50:46;26.42;;;4.70;;
36257;SDS011;22294;52.044;4.582;2023-02-18T10:55:57;25.08;;;4.25;;
36257;SDS011;22294;52.044;4.582;2023-02-18T10:58:25;20.52;;;4.15;;
36257;SDS011;22294;52.044;4.582;2023-02-18T11:00:56;24.55;;;3.65;;
36257;SDS011;22294;52.044;4.582;2023-02-18T11:03:23;26.13;;;3.85;;
36257;SDS011;22294;52.044;4.582;2023-02-18T11:06:16;23.27;;;4.18;;
36257;SDS011;22294;52.044;4.582;2023-02-18T11:08:46;24.02;;;4.68;;
36257;SDS011;22294;52.044;4.582;2023-02-18T11:11:32;21.25;;;3.70;;
36257;SDS011;22294;52.044;4.582;2023-02-18T11:14:02;22.65;;;4.15;;
36257;SDS011;22294;52.044;4.582;2023-02-18T11:16:39;24.70;;;3.78;;
36257;SDS011;22294;52.044;4.582;2023-02-18T11:19:48;23.35;;;3.85;;
36257;SDS011;22294;52.044;4.582;2023-02-18T11:22:21;20.63;;;4.22;;
36257;SDS011;22294;52.044;4.582;2023-02-18T11:24:52;21.92;;;3.75;;
36257;SDS011;22294;52.044;4.582;2023-02-18T11:27:23;26.13;;;3.90;;
36257;SDS011;22294;52.044;4.582;2023-02-18T11:30:19;21.50;;;3.67;;
36257;SDS011;22294;52.044;4.582;2023-02-18T11:32:45;21.83;;;3.10;;
36257;SDS011;22294;52.044;4.582;2023-02-18T11:35:26;22.83;;;3.70;;
36257;SDS011;22294;52.044;4.582;2023-02-18T11:37:55;22.95;;;3.63;;
36257;SDS011;22294;52.044;4.582;2023-02-18T11:40:24;28.88;;;3.45;;
36257;SDS011;22294;52.044;4.582;2023-02-18T11:43:03;24.63;;;3.78;;
36257;SDS011;22294;52.044;4.582;2023-02-18T11:45:32;17.65;;;4.32;;
36257;SDS011;22294;52.044;4.582;2023-02-18T11:48:15;14.95;;;3.15;;
36257;SDS011;22294;52.044;4.582;2023-02-18T11:50:42;18.23;;;3.45;;
36257;SDS011;22294;52.044;4.582;2023-02-18T11:55:56;18.92;;;4.05;;
36257;SDS011;22294;52.044;4.582;2023-02-18T11:58:24;20.13;;;3.78;;
36257;SDS011;22294;52.044;4.582;2023-02-18T12:00:50;21.48;;;4.10;;
36257;SDS011;22294;52.044;4.582;2023-02-18T12:06:27;17.10;;;3.22;;
36257;SDS011;22294;52.044;4.582;2023-02-18T12:12:00;23.08;;;3.83;;
36257;SDS011;22294;52.044;4.582;2023-02-18T12:14:30;19.35;;;3.25;;
36257;SDS011;22294;52.044;4.582;2023-02-18T12:22:56;22.27;;;3.30;;
36257;SDS011;22294;52.044;4.582;2023-02-18T12:25:38;18.55;;;3.17;;
36257;SDS011;22294;52.044;4.582;2023-02-18T12:28:27;16.33;;;2.67;;
36257;SDS011;22294;52.044;4.582;2023-02-18T12:31:19;16.05;;;2.72;;
36257;SDS011;22294;52.044;4.582;2023-02-18T12:36:40;16.15;;;2.67;;
36257;SDS011;22294;52.044;4.582;2023-02-18T12:39:34;16.23;;;3.10;;
36257;SDS011;22294;52.044;4.582;2023-02-18T12:44:57;14.25;;;2.85;;
36257;SDS011;22294;52.044;4.582;2023-02-18T12:55:30;22.73;;;3.53;;
36257;SDS011;22294;52.044;4.582;2023-02-18T13:01:04;14.63;;;2.67;;
36257;SDS011;22294;52.044;4.582;2023-02-18T13:03:47;19.25;;;3.60;;
36257;SDS011;22294;52.044;4.582;2023-02-18T13:06:47;17.13;;;3.65;;
36257;SDS011;22294;52.044;4.582;2023-02-18T13:17:30;13.57;;;2.85;;
36257;SDS011;22294;52.044;4.582;2023-02-18T13:20:08;17.35;;;2.50;;
36257;SDS011;22294;52.044;4.582;2023-02-18T13:22:41;16.42;;;2.72;;
36257;SDS011;22294;52.044;4.582;2023-02-18T13:25:10;14.80;;;3.00;;
36257;SDS011;22294;52.044;4.582;2023-02-18T13:27:39;12.32;;;2.65;;
36257;SDS011;22294;52.044;4.582;2023-02-18T13:32:59;14.15;;;3.13;;
36257;SDS011;22294;52.044;4.582;2023-02-18T13:35:28;10.90;;;2.58;;
36257;SDS011;22294;52.044;4.582;2023-02-18T13:38:11;16.50;;;3.63;;
36257;SDS011;22294;52.044;4.582;2023-02-18T13:40:55;17.08;;;2.97;;
36257;SDS011;22294;52.044;4.582;2023-02-18T13:51:13;14.70;;;3.30;;
36257;SDS011;22294;52.044;4.582;2023-02-18T13:53:58;10.00;;;2.42;;
36257;SDS011;22294;52.044;4.582;2023-02-18T13:56:38;14.52;;;2.78;;
36257;SDS011;22294;52.044;4.582;2023-02-18T13:59:10;11.63;;;2.08;;
36257;SDS011;22294;52.044;4.582;2023-02-18T14:01:48;10.07;;;2.70;;
36257;SDS011;22294;52.044;4.582;2023-02-18T14:10:27;9.02;;;1.98;;
36257;SDS011;22294;52.044;4.582;2023-02-18T14:17:54;11.47;;;2.53;;
36257;SDS011;22294;52.044;4.582;2023-02-18T14:25:50;13.68;;;3.00;;
36257;SDS011;22294;52.044;4.582;2023-02-18T14:28:53;11.88;;;2.75;;
36257;SDS011;22294;52.044;4.582;2023-02-18T14:31:24;13.88;;;3.38;;
36257;SDS011;22294;52.044;4.582;2023-02-18T14:50:13;18.42;;;3.42;;
36257;SDS011;22294;52.044;4.582;2023-02-18T14:52:44;19.73;;;3.22;;
36257;SDS011;22294;52.044;4.582;2023-02-18T14:55:33;20.00;;;4.35;;
36257;SDS011;22294;52.044;4.582;2023-02-18T14:58:02;21.67;;;3.60;;
36257;SDS011;22294;52.044;4.582;2023-02-18T15:00:33;21.75;;;3.33;;
36257;SDS011;22294;52.044;4.582;2023-02-18T15:03:03;16.63;;;3.05;;
36257;SDS011;22294;52.044;4.582;2023-02-18T15:05:35;17.90;;;3.75;;
36257;SDS011;22294;52.044;4.582;2023-02-18T15:08:03;16.08;;;3.17;;
36257;SDS011;22294;52.044;4.582;2023-02-18T15:10:39;23.73;;;3.85;;
36257;SDS011;22294;52.044;4.582;2023-02-18T15:15:49;18.60;;;3.50;;
36257;SDS011;22294;52.044;4.582;2023-02-18T15:18:19;21.98;;;4.18;;
36257;SDS011;22294;52.044;4.582;2023-02-18T15:20:49;19.73;;;3.22;;
36257;SDS011;22294;52.044;4.582;2023-02-18T15:23:15;17.30;;;3.38;;
36257;SDS011;22294;52.044;4.582;2023-02-18T15:25:43;17.42;;;4.13;;
36257;SDS011;22294;52.044;4.582;2023-02-18T15:28:20;18.05;;;3.53;;
36257;SDS011;22294;52.044;4.582;2023-02-18T15:30:50;24.02;;;4.15;;
36257;SDS011;22294;52.044;4.582;2023-02-18T15:33:17;21.20;;;3.38;;
36257;SDS011;22294;52.044;4.582;2023-02-18T15:35:43;22.38;;;4.25;;
36257;SDS011;22294;52.044;4.582;2023-02-18T15:38:13;19.05;;;4.25;;
36257;SDS011;22294;52.044;4.582;2023-02-18T15:40:40;15.23;;;3.40;;
36257;SDS011;22294;52.044;4.582;2023-02-18T15:43:07;18.33;;;3.22;;
36257;SDS011;22294;52.044;4.582;2023-02-18T15:48:06;17.65;;;3.50;;
36257;SDS011;22294;52.044;4.582;2023-02-18T15:50:32;22.85;;;3.72;;
36257;SDS011;22294;52.044;4.582;2023-02-18T15:53:07;22.33;;;3.63;;
36257;SDS011;22294;52.044;4.582;2023-02-18T15:55:37;26.38;;;4.57;;
36257;SDS011;22294;52.044;4.582;2023-02-18T15:58:10;18.40;;;4.60;;
36257;SDS011;22294;52.044;4.582;2023-02-18T16:00:41;25.27;;;3.85;;
36257;SDS011;22294;52.044;4.582;2023-02-18T16:03:14;27.05;;;4.35;;
36257;SDS011;22294;52.044;4.582;2023-02-18T16:05:41;16.25;;;3.67;;
36257;SDS011;22294;52.044;4.582;2023-02-18T16:08:23;28.20;;;4.10;;
36257;SDS011;22294;52.044;4.582;2023-02-18T16:11:10;21.63;;;4.05;;
36257;SDS011;22294;52.044;4.582;2023-02-18T16:13:43;24.15;;;4.78;;
36257;SDS011;22294;52.044;4.582;2023-02-18T16:16:24;26.08;;;4.70;;
36257;SDS011;22294;52.044;4.582;2023-02-18T16:18:53;19.10;;;4.32;;
36257;SDS011;22294;52.044;4.582;2023-02-18T16:23:45;23.20;;;3.83;;
36257;SDS011;22294;52.044;4.582;2023-02-18T16:26:26;20.92;;;4.25;;
36257;SDS011;22294;52.044;4.582;2023-02-18T16:29:13;25.88;;;4.65;;
36257;SDS011;22294;52.044;4.582;2023-02-18T16:31:40;21.75;;;4.07;;
36257;SDS011;22294;52.044;4.582;2023-02-18T16:34:07;24.33;;;4.53;;
36257;SDS011;22294;52.044;4.582;2023-02-18T16:36:33;25.17;;;4.28;;
36257;SDS011;22294;52.044;4.582;2023-02-18T16:38:58;28.90;;;4.72;;
36257;SDS011;22294;52.044;4.582;2023-02-18T16:41:26;22.77;;;3.78;;
36257;SDS011;22294;52.044;4.582;2023-02-18T16:43:52;37.33;;;4.80;;
36257;SDS011;22294;52.044;4.582;2023-02-18T16:46:18;27.35;;;4.30;;
36257;SDS011;22294;52.044;4.582;2023-02-18T16:48:49;25.80;;;4.22;;
36257;SDS011;22294;52.044;4.582;2023-02-18T16:51:29;27.05;;;5.00;;
36257;SDS011;22294;52.044;4.582;2023-02-18T16:53:56;27.13;;;5.05;;
36257;SDS011;22294;52.044;4.582;2023-02-18T16:56:24;28.63;;;5.20;;
36257;SDS011;22294;52.044;4.582;2023-02-18T16:58:51;24.90;;;4.60;;
36257;SDS011;22294;52.044;4.582;2023-02-18T17:01:39;27.08;;;5.85;;
36257;SDS011;22294;52.044;4.582;2023-02-18T17:04:05;36.17;;;5.43;;
36257;SDS011;22294;52.044;4.582;2023-02-18T17:06:32;36.33;;;6.55;;
36257;SDS011;22294;52.044;4.582;2023-02-18T17:08:58;30.42;;;6.13;;
36257;SDS011;22294;52.044;4.582;2023-02-18T17:11:25;34.55;;;6.53;;